Time;durP1;ratioP1;P1;durP2;ratioP2;P2;SDS_P1;SDS_P2;PMS_P1;PMS_P2;Temp;Humidity;BMP_temperature;BMP_pressure;BME280_temperature;BME280_humidity;BME280_pressure;Samples;Min_cycle;Max_cycle;Signal;HPM_P1;HPM_P2
2021/04/26 00:01:11;;;;;;;48.65;21.30;;;;;;;2.78;58.13;100507.47;3594852;39;20425;-65
2021/04/26 00:03:37;;;;;;;43.15;21.88;;;;;;;2.85;58.09;100501.38;3598003;39;20040;-66
2021/04/26 00:06:04;;;;;;;52.80;21.40;;;;;;;2.92;57.82;100495.34;3597757;39;20359;-66
2021/04/26 00:08:30;;;;;;;42.10;21.35;;;;;;;2.97;57.85;100494.44;3593407;39;20393;-65
2021/04/26 00:10:58;;;;;;;45.88;21.23;;;;;;;3.02;57.69;100494.44;3595330;39;20420;-66
2021/04/26 00:13:24;;;;;;;45.55;21.85;;;;;;;3.08;57.93;100493.53;3588480;39;20402;-67
2021/04/26 00:15:51;;;;;;;51.63;21.65;;;;;;;3.14;57.97;100501.31;3589699;40;20306;-66
2021/04/26 00:18:17;;;;;;;43.65;20.30;;;;;;;3.14;57.78;100499.56;3588191;40;20110;-67
2021/04/26 00:20:44;;;;;;;44.25;18.35;;;;;;;3.10;57.81;100499.56;3588935;40;20121;-66
2021/04/26 00:23:14;;;;;;;36.88;18.10;;;;;;;3.04;58.08;100500.47;3587090;40;20040;-66
2021/04/26 00:25:42;;;;;;;54.53;21.55;;;;;;;3.02;57.88;100502.19;3592969;40;20036;-66
2021/04/26 00:28:09;;;;;;;65.88;27.65;;;;;;;3.00;57.92;100496.16;3590742;39;20287;-67
2021/04/26 00:30:35;;;;;;;78.75;31.48;;;;;;;2.94;57.91;100498.78;3588224;40;20117;-67
2021/04/26 00:33:02;;;;;;;86.55;32.95;;;;;;;2.86;58.05;100508.28;3588234;40;20043;-67
2021/04/26 00:35:28;;;;;;;65.60;28.67;;;;;;;2.80;58.10;100505.72;3589637;40;20366;-66
2021/04/26 00:37:56;;;;;;;68.47;27.52;;;;;;;2.75;58.01;100508.34;3592143;40;20117;-66
2021/04/26 00:40:23;;;;;;;51.05;25.65;;;;;;;2.71;58.11;100506.63;3588654;40;20040;-66
2021/04/26 00:42:50;;;;;;;47.05;23.02;;;;;;;2.71;58.27;100517.84;3588565;40;20058;-66
2021/04/26 00:45:20;;;;;;;33.00;17.67;;;;;;;2.67;58.16;100516.09;3588009;40;20045;-66
2021/04/26 00:47:48;;;;;;;38.97;16.85;;;;;;;2.66;58.47;100516.97;3587641;40;20044;-66
2021/04/26 00:50:16;;;;;;;35.70;16.25;;;;;;;2.67;58.42;100516.09;3588845;40;20047;-66
2021/04/26 00:52:43;;;;;;;29.67;15.27;;;;;;;2.72;58.27;100522.16;3587175;40;20032;-66
2021/04/26 00:55:11;;;;;;;32.83;14.80;;;;;;;2.77;57.94;100526.44;3587221;40;20098;-66
2021/04/26 00:57:38;;;;;;;31.27;14.57;;;;;;;2.75;58.08;100519.53;3590474;40;20321;-66
2021/04/26 01:00:06;;;;;;;26.42;13.73;;;;;;;2.73;58.17;100521.28;3587079;40;20040;-66
2021/04/26 01:02:34;;;;;;;33.65;13.88;;;;;;;2.80;58.02;100518.66;3589303;40;20049;-66
2021/04/26 01:05:01;;;;;;;28.52;14.55;;;;;;;2.89;57.83;100523.81;3588414;40;20065;-66
2021/04/26 01:07:28;;;;;;;30.40;13.85;;;;;;;3.01;57.56;100523.78;3590661;40;20445;-67
2021/04/26 01:09:54;;;;;;;26.88;12.88;;;;;;;3.01;57.43;100518.59;3587873;40;20048;-65
2021/04/26 01:12:32;;;;;;;28.40;12.93;;;;;;;2.85;58.15;100522.09;3587464;40;20061;-67
2021/04/26 01:15:09;;;;;;;25.05;12.90;;;;;;;2.72;58.27;100516.09;3587127;40;20325;-66
2021/04/26 01:17:41;;;;;;;26.75;12.45;;;;;;;2.60;58.74;100511.81;3589735;40;20440;-66
2021/04/26 01:20:50;;;;;;;25.50;12.35;;;;;;;2.51;58.83;100519.59;3585318;40;20416;-65
2021/04/26 01:23:55;;;;;;;23.95;13.43;;;;;;;2.42;58.89;100514.41;3587954;40;20039;-65
2021/04/26 01:26:31;;;;;;;27.30;12.90;;;;;;;2.35;59.01;100512.72;3593270;40;20032;-65
2021/04/26 01:29:07;;;;;;;27.23;12.10;;;;;;;2.32;59.15;100510.13;3586293;39;20036;-66
2021/04/26 01:31:44;;;;;;;25.77;13.80;;;;;;;2.28;59.11;100510.97;3587087;40;20095;-66
2021/04/26 01:34:11;;;;;;;18.48;11.18;;;;;;;2.28;59.19;100510.97;3586099;40;20041;-67
2021/04/26 01:36:38;;;;;;;19.45;10.35;;;;;;;2.24;59.31;100504.06;3591664;40;20278;-66
2021/04/26 01:39:07;;;;;;;17.48;9.93;;;;;;;2.24;59.41;100511.84;3587106;39;20964;-65
2021/04/26 01:41:34;;;;;;;18.42;9.55;;;;;;;2.19;59.44;100501.50;3588799;40;20294;-67
2021/04/26 01:44:01;;;;;;;22.70;9.38;;;;;;;2.14;59.81;100503.22;3588328;40;20041;-66
2021/04/26 01:46:28;;;;;;;18.00;9.20;;;;;;;2.08;59.87;100504.09;3587599;40;20041;-68
2021/04/26 01:48:56;;;;;;;16.92;8.95;;;;;;;2.05;59.85;100504.06;3587896;40;20043;-66
2021/04/26 01:51:24;;;;;;;16.63;9.15;;;;;;;2.09;60.02;100505.81;3587876;40;20041;-66
2021/04/26 01:53:51;;;;;;;20.30;10.10;;;;;;;2.22;59.91;100501.50;3587769;40;20125;-66
2021/04/26 01:56:18;;;;;;;18.10;9.02;;;;;;;2.33;59.58;100498.91;3588850;40;20407;-67
2021/04/26 01:58:49;;;;;;;14.73;8.93;;;;;;;2.38;59.73;100502.34;3589043;39;20046;-66
2021/04/26 02:01:18;;;;;;;15.32;9.05;;;;;;;2.51;59.71;100508.38;3586751;40;20390;-66
2021/04/26 02:03:47;;;;;;;18.17;9.85;;;;;;;2.66;59.62;100503.16;3587112;40;20033;-67
2021/04/26 02:06:14;;;;;;;15.38;9.07;;;;;;;2.84;59.30;100507.44;3592733;40;20036;-67
2021/04/26 02:08:41;;;;;;;14.48;9.57;;;;;;;2.86;59.26;100501.38;3587351;39;20084;-66
2021/04/26 02:11:11;;;;;;;15.95;10.30;;;;;;;2.79;59.51;100498.81;3586838;40;20041;-66
2021/04/26 02:13:38;;;;;;;17.42;10.38;;;;;;;2.71;59.94;100483.31;3591815;39;20263;-66
2021/04/26 02:16:05;;;;;;;14.63;8.57;;;;;;;2.60;59.91;100478.16;3592460;40;20044;-66
2021/04/26 02:18:32;;;;;;;17.80;8.80;;;;;;;2.53;60.37;100476.47;3590599;39;20402;-66
2021/04/26 02:20:58;;;;;;;14.50;8.50;;;;;;;2.57;60.38;100493.69;3590243;39;20040;-67
2021/04/26 02:23:27;;;;;;;16.17;7.97;;;;;;;2.69;60.36;100490.19;3587279;40;20029;-67
2021/04/26 02:25:54;;;;;;;20.52;8.63;;;;;;;2.84;60.11;100484.13;3588288;40;20563;-67
2021/04/26 02:28:20;;;;;;;12.13;7.75;;;;;;;2.97;59.87;100485.81;3590230;39;20043;-66
2021/04/26 02:30:49;;;;;;;11.82;7.15;;;;;;;3.09;59.85;100488.34;3588103;40;20041;-66
2021/04/26 02:33:17;;;;;;;12.73;6.55;;;;;;;3.22;59.55;100487.44;3595388;40;20040;-66
2021/04/26 02:35:47;;;;;;;13.95;6.80;;;;;;;3.28;59.65;100478.75;3595843;39;20036;-66
2021/04/26 02:38:16;;;;;;;16.58;6.53;;;;;;;3.27;59.64;100482.22;3593783;40;20073;-66
2021/04/26 02:40:46;;;;;;;13.18;7.38;;;;;;;3.31;59.52;100479.59;3588451;40;20047;-65
2021/04/26 02:43:14;;;;;;;9.70;6.47;;;;;;;3.43;59.30;100488.19;3587219;40;20382;-65
2021/04/26 02:45:50;;;;;;;16.65;6.80;;;;;;;3.48;59.30;100484.69;3587733;40;20045;-66
2021/04/26 02:48:18;;;;;;;21.25;8.25;;;;;;;3.60;59.24;100483.78;3588395;40;20032;-66
2021/04/26 02:50:46;;;;;;;18.45;6.97;;;;;;;3.71;59.14;100474.19;3588264;40;20039;-65
2021/04/26 02:53:15;;;;;;;13.02;6.72;;;;;;;3.80;59.17;100476.72;3588393;40;20109;-67
2021/04/26 02:55:45;;;;;;;11.35;6.47;;;;;;;3.89;59.31;100473.19;3588553;40;20054;-66
2021/04/26 02:58:13;;;;;;;10.98;6.57;;;;;;;3.93;59.39;100475.75;3588337;40;20442;-66
2021/04/26 03:00:41;;;;;;;9.45;5.70;;;;;;;4.01;59.45;100472.25;3588355;40;20048;-66
2021/04/26 03:03:09;;;;;;;10.27;5.38;;;;;;;4.05;59.23;100468.75;3585390;40;20033;-66
2021/04/26 03:05:35;;;;;;;6.75;5.00;;;;;;;4.06;59.54;100475.66;3583979;40;20418;-66
2021/04/26 03:08:02;;;;;;;9.63;5.45;;;;;;;3.97;59.89;100472.28;3588063;40;20114;-66
2021/04/26 03:10:29;;;;;;;8.57;5.55;;;;;;;3.81;59.92;100475.84;3592095;40;20449;-65
2021/04/26 03:12:56;;;;;;;6.40;4.43;;;;;;;3.61;60.55;100472.53;3588835;40;20397;-66
2021/04/26 03:15:26;;;;;;;9.27;5.03;;;;;;;3.43;61.03;100477.84;3588301;40;20049;-67
2021/04/26 03:17:54;;;;;;;8.70;5.40;;;;;;;3.31;61.25;100476.16;3587844;40;20349;-67
2021/04/26 03:20:21;;;;;;;9.20;5.35;;;;;;;3.19;61.55;100474.50;3595442;40;20036;-67
2021/04/26 03:22:49;;;;;;;10.32;5.38;;;;;;;3.04;61.62;100464.19;3595589;39;20070;-66
2021/04/26 03:25:19;;;;;;;11.45;5.32;;;;;;;2.93;61.75;100466.00;3587774;40;20478;-66
2021/04/26 03:27:49;;;;;;;11.40;5.38;;;;;;;2.86;61.62;100456.50;3588653;40;20037;-65
2021/04/26 03:30:17;;;;;;;11.57;5.57;;;;;;;2.79;61.81;100471.22;3587582;40;20045;-66
2021/04/26 03:32:44;;;;;;;14.10;8.40;;;;;;;2.79;61.95;100467.75;3587484;40;20043;-66
2021/04/26 03:35:14;;;;;;;16.65;8.98;;;;;;;2.80;62.00;100469.47;3587688;40;20125;-65
2021/04/26 03:37:42;;;;;;;19.92;11.35;;;;;;;2.78;61.99;100471.22;3585364;40;20063;-66
2021/04/26 03:40:10;;;;;;;38.83;17.52;;;;;;;2.70;62.21;100469.50;3587763;40;20037;-66
2021/04/26 03:42:36;;;;;;;44.25;20.50;;;;;;;2.61;62.25;100477.28;3587445;40;20069;-66
2021/04/26 03:45:04;;;;;;;38.00;17.92;;;;;;;2.53;62.34;100479.03;3587765;40;20062;-66
2021/04/26 03:47:30;;;;;;;27.38;13.30;;;;;;;2.45;62.51;100473.00;3589856;40;20036;-66
2021/04/26 03:49:56;;;;;;;24.67;12.88;;;;;;;2.41;62.67;100471.28;3592705;40;20036;-66
2021/04/26 03:52:23;;;;;;;24.92;12.50;;;;;;;2.37;62.69;100470.44;3598964;40;20050;-67
2021/04/26 03:54:50;;;;;;;22.15;11.82;;;;;;;2.37;62.63;100482.53;3592088;40;20137;-67
2021/04/26 03:57:16;;;;;;;21.17;10.23;;;;;;;2.35;62.60;100477.34;3595572;40;20117;-68
2021/04/26 03:59:42;;;;;;;32.38;16.52;;;;;;;2.42;62.68;100475.59;3589168;40;20393;-66
2021/04/26 04:02:09;;;;;;;33.78;18.23;;;;;;;2.50;62.50;100483.34;3589894;40;20060;-65
2021/04/26 04:04:36;;;;;;;52.63;22.10;;;;;;;2.55;62.42;100487.66;3589010;40;20049;-67
2021/04/26 04:07:02;;;;;;;44.05;20.92;;;;;;;2.63;62.56;100482.47;3593880;40;20301;-66
2021/04/26 04:09:29;;;;;;;37.70;18.08;;;;;;;2.76;62.32;100494.53;3596248;40;20109;-66
2021/04/26 04:11:55;;;;;;;37.53;19.00;;;;;;;2.92;61.70;100493.63;3591144;39;20330;-66
2021/04/26 04:14:22;;;;;;;34.95;17.25;;;;;;;3.05;61.68;100495.28;3598816;40;20040;-66
2021/04/26 04:16:48;;;;;;;36.85;18.48;;;;;;;3.14;61.39;100488.34;3599946;39;20044;-66
2021/04/26 04:19:14;;;;;;;25.02;14.27;;;;;;;3.20;61.67;100496.94;3597481;39;20032;-66
2021/04/26 04:21:40;;;;;;;27.65;15.50;;;;;;;3.25;61.44;100500.38;3592450;39;20036;-67
2021/04/26 04:24:08;;;;;;;24.88;13.75;;;;;;;3.38;61.30;100497.72;3595132;40;20047;-66
2021/04/26 04:26:35;;;;;;;23.90;12.45;;;;;;;3.49;61.02;100494.19;3595171;40;20042;-67
2021/04/26 04:29:01;;;;;;;19.67;10.73;;;;;;;3.66;61.15;100502.75;3589725;39;20041;-66
2021/04/26 04:31:27;;;;;;;15.25;8.52;;;;;;;3.84;60.82;100506.94;3589150;40;20040;-65
2021/04/26 04:33:54;;;;;;;13.63;8.52;;;;;;;3.94;60.47;100502.53;3588114;40;20072;-66
2021/04/26 04:36:20;;;;;;;11.98;7.63;;;;;;;3.94;60.74;100503.41;3589122;40;20353;-66
2021/04/26 04:38:46;;;;;;;14.07;7.55;;;;;;;3.89;60.62;100502.59;3588896;40;20067;-65
2021/04/26 04:41:12;;;;;;;14.00;7.20;;;;;;;3.89;60.60;100505.19;3589412;40;20043;-66
2021/04/26 04:43:40;;;;;;;10.93;6.50;;;;;;;3.82;60.88;100506.09;3589237;40;20040;-66
2021/04/26 04:46:06;;;;;;;13.50;7.65;;;;;;;3.78;60.67;100506.16;3589006;40;20401;-66
2021/04/26 04:48:33;;;;;;;10.43;7.07;;;;;;;3.79;60.83;100506.13;3588819;40;20025;-66
2021/04/26 04:50:59;;;;;;;16.05;8.40;;;;;;;3.84;60.68;100506.94;3589342;40;20068;-67
2021/04/26 04:53:25;;;;;;;16.50;8.10;;;;;;;3.92;60.20;100510.34;3589062;40;20028;-66
2021/04/26 04:55:51;;;;;;;16.95;8.88;;;;;;;4.10;60.16;100503.28;3589072;40;20267;-66
2021/04/26 04:58:18;;;;;;;14.63;8.82;;;;;;;4.36;59.42;100506.53;3587358;40;20037;-66
2021/04/26 05:00:45;;;;;;;14.27;8.80;;;;;;;4.74;58.54;100507.91;3586219;40;20045;-66
2021/04/26 05:03:11;;;;;;;18.98;8.65;;;;;;;5.24;57.54;100511.69;3578850;40;20037;-66
2021/04/26 05:05:38;;;;;;;13.55;7.63;;;;;;;5.69;56.71;100502.41;3578821;40;20045;-67
2021/04/26 05:08:05;;;;;;;11.32;7.00;;;;;;;5.82;56.28;100504.78;3579175;40;20069;-67
2021/04/26 05:10:31;;;;;;;10.25;6.40;;;;;;;5.88;56.18;100505.59;3579483;40;20059;-66
2021/04/26 05:12:58;;;;;;;14.80;6.43;;;;;;;6.06;56.22;100505.34;3579507;40;20077;-67
2021/04/26 05:15:24;;;;;;;7.60;4.97;;;;;;;7.12;54.08;100502.56;3579002;40;20045;-67
2021/04/26 05:17:53;;;;;;;8.75;5.18;;;;;;;6.80;54.57;100502.31;3581105;40;20137;-67
2021/04/26 05:20:20;;;;;;;9.40;4.78;;;;;;;6.42;55.47;100501.25;3589189;40;20040;-67
2021/04/26 05:22:48;;;;;;;8.82;4.80;;;;;;;6.22;56.03;100516.34;3588787;40;20372;-66
2021/04/26 05:25:14;;;;;;;9.68;4.95;;;;;;;6.10;56.21;100517.41;3588820;40;20048;-66
2021/04/26 05:27:40;;;;;;;6.22;4.53;;;;;;;6.00;56.11;100518.44;3588486;40;20382;-65
2021/04/26 05:30:09;;;;;;;5.85;4.63;;;;;;;6.23;55.78;100524.13;3587510;40;20037;-67
2021/04/26 05:32:35;;;;;;;10.02;5.35;;;;;;;6.62;54.95;100519.13;3589080;40;20271;-67
2021/04/26 05:35:03;;;;;;;9.30;5.15;;;;;;;7.23;53.63;100516.22;3587699;40;20062;-68
2021/04/26 05:37:29;;;;;;;7.90;5.40;;;;;;;7.98;52.11;100519.81;3565059;39;20393;-67
2021/04/26 05:39:56;;;;;;;7.80;4.97;;;;;;;8.40;51.07;100522.31;3573254;40;20042;-65
2021/04/26 05:42:22;;;;;;;9.55;5.53;;;;;;;8.56;50.45;100521.03;3572282;40;20041;-66
2021/04/26 05:44:49;;;;;;;12.98;5.30;;;;;;;8.68;50.32;100528.53;3582510;40;20035;-65
2021/04/26 05:47:15;;;;;;;11.27;5.57;;;;;;;8.82;50.03;100526.41;3570932;40;20037;-66
2021/04/26 05:49:43;;;;;;;9.43;5.22;;;;;;;9.10;49.38;100533.50;3570732;40;20042;-66
2021/04/26 05:52:10;;;;;;;8.50;5.00;;;;;;;9.10;48.84;100533.50;3575227;40;20317;-67
2021/04/26 05:54:37;;;;;;;8.18;5.05;;;;;;;9.41;47.99;100530.91;3577509;40;20033;-67
2021/04/26 05:57:03;;;;;;;10.63;4.80;;;;;;;9.96;46.89;100531.81;3577485;40;20380;-66
2021/04/26 05:59:30;;;;;;;9.85;4.65;;;;;;;10.52;45.51;100534.41;3574764;40;20045;-67
2021/04/26 06:01:56;;;;;;;7.30;4.40;;;;;;;10.79;44.76;100533.47;3577492;40;20399;-66
2021/04/26 06:04:22;;;;;;;8.07;4.05;;;;;;;11.06;44.15;100530.81;3577528;40;20044;-67
2021/04/26 06:06:49;;;;;;;6.43;3.80;;;;;;;11.28;43.73;100542.25;3577746;40;20025;-66
2021/04/26 06:09:16;;;;;;;6.63;3.80;;;;;;;11.56;43.35;100542.91;3577620;40;20099;-66
2021/04/26 06:11:42;;;;;;;7.60;3.50;;;;;;;12.34;41.90;100537.25;3574389;40;20125;-66
2021/04/26 06:14:08;;;;;;;4.75;3.33;;;;;;;13.42;39.56;100535.22;3577504;40;20029;-66
2021/04/26 06:16:36;;;;;;;7.03;3.80;;;;;;;14.68;36.84;100524.78;3577886;40;20290;-67
2021/04/26 06:19:03;;;;;;;4.57;3.35;;;;;;;15.88;34.84;100529.88;3577654;40;20417;-65
2021/04/26 06:21:29;;;;;;;5.57;3.50;;;;;;;16.97;32.98;100523.47;3577340;40;20037;-68
2021/04/26 06:23:55;;;;;;;4.50;3.35;;;;;;;17.32;32.84;100520.47;3575326;40;20118;-68
2021/04/26 06:26:22;;;;;;;4.43;3.20;;;;;;;17.30;32.13;100523.22;3574855;40;20041;-69
2021/04/26 06:28:49;;;;;;;8.52;3.67;;;;;;;17.73;31.68;100517.91;3576120;40;20033;-66
2021/04/26 06:31:15;;;;;;;5.82;3.75;;;;;;;18.59;29.87;100513.13;3575612;40;20038;-66
2021/04/26 06:33:41;;;;;;;4.75;3.13;;;;;;;19.50;28.89;100521.88;3575872;40;20072;-66
2021/04/26 06:36:07;;;;;;;4.00;3.25;;;;;;;19.67;27.88;100513.59;3576992;40;20033;-67
2021/04/26 06:38:34;;;;;;;4.07;3.17;;;;;;;20.35;26.44;100509.47;3576637;40;20425;-67
2021/04/26 06:41:00;;;;;;;4.63;3.22;;;;;;;20.61;26.08;100511.03;3577126;40;20065;-66
2021/04/26 06:43:27;;;;;;;5.10;3.30;;;;;;;21.01;25.40;100516.84;3576986;40;20021;-66
2021/04/26 06:45:53;;;;;;;6.90;3.75;;;;;;;21.87;24.39;100516.25;3577395;40;20349;-68
2021/04/26 06:48:20;;;;;;;8.48;4.15;;;;;;;23.34;22.68;100504.75;3577487;40;20036;-66
2021/04/26 06:50:47;;;;;;;5.45;3.63;;;;;;;23.94;21.74;100507.47;3577554;40;20059;-67
2021/04/26 06:53:14;;;;;;;5.50;2.97;;;;;;;24.74;20.74;100501.88;3576193;40;20029;-66
2021/04/26 06:55:40;;;;;;;3.65;3.28;;;;;;;26.18;19.09;100502.25;3575190;40;20037;-67
2021/04/26 06:58:07;;;;;;;6.18;3.97;;;;;;;27.61;17.80;100500.94;3573940;40;20056;-66
2021/04/26 07:00:35;;;;;;;4.85;3.42;;;;;;;28.58;16.79;100491.41;3574362;40;20484;-66
2021/04/26 07:03:02;;;;;;;6.45;4.22;;;;;;;29.92;15.73;100486.13;3576401;40;20033;-67
2021/04/26 07:05:29;;;;;;;4.22;3.25;;;;;;;32.24;13.90;100480.47;3576702;40;20341;-67
2021/04/26 07:07:55;;;;;;;4.55;3.72;;;;;;;33.92;12.41;100483.91;3572725;40;20306;-69
2021/04/26 07:10:22;;;;;;;7.45;3.97;;;;;;;35.20;11.53;100484.63;3576713;40;20033;-69
2021/04/26 07:12:48;;;;;;;10.50;3.38;;;;;;;29.72;14.77;100501.94;3576962;40;20040;-69
2021/04/26 07:15:15;;;;;;;5.45;3.10;;;;;;;24.71;18.98;100515.56;3577103;40;20114;-67
2021/04/26 07:17:43;;;;;;;5.65;3.63;;;;;;;23.56;20.02;100516.22;3576998;40;20426;-68
2021/04/26 07:20:13;;;;;;;9.98;4.60;;;;;;;28.48;15.37;100501.50;3577945;40;20041;-69
2021/04/26 07:22:39;;;;;;;4.70;3.85;;;;;;;28.44;15.37;100503.69;3577863;40;20216;-68
2021/04/26 07:25:07;;;;;;;5.05;3.35;;;;;;;31.39;13.39;100488.41;3579523;40;20083;-68
2021/04/26 07:27:33;;;;;;;4.97;3.85;;;;;;;34.32;10.83;100486.72;3579461;40;20244;-69
2021/04/26 07:29:59;;;;;;;9.43;4.72;;;;;;;29.59;14.23;100483.63;3579372;40;20048;-68
2021/04/26 07:32:26;;;;;;;4.50;3.33;;;;;;;25.01;17.61;100511.88;3583295;40;20045;-68
2021/04/26 07:34:53;;;;;;;6.57;3.80;;;;;;;22.33;19.71;100515.19;3587629;40;20081;-69
2021/04/26 07:37:20;;;;;;;5.18;3.72;;;;;;;20.78;21.43;100520.41;3578469;40;20168;-69
2021/04/26 07:39:47;;;;;;;6.95;3.90;;;;;;;20.73;21.00;100519.94;3579877;40;20041;-68
2021/04/26 07:42:15;;;;;;;7.28;4.13;;;;;;;21.89;19.48;100508.13;3583045;40;20069;-69
2021/04/26 07:44:41;;;;;;;5.47;3.88;;;;;;;27.46;15.30;100499.00;3582620;40;20033;-68
2021/04/26 07:47:09;;;;;;;5.10;3.50;;;;;;;27.98;14.52;100497.03;3576010;40;20268;-69
2021/04/26 07:49:35;;;;;;;4.47;3.35;;;;;;;26.63;15.16;100501.34;3575790;40;20037;-68
2021/04/26 07:52:03;;;;;;;4.88;3.50;;;;;;;22.93;18.09;100502.16;3579230;40;20069;-68
2021/04/26 07:54:29;;;;;;;5.35;3.20;;;;;;;20.64;20.35;100510.84;3577574;40;20037;-68
2021/04/26 07:56:55;;;;;;;6.63;3.80;;;;;;;24.45;16.76;100499.22;3578474;40;20115;-68
2021/04/26 07:59:22;;;;;;;5.20;3.35;;;;;;;28.14;13.77;100488.16;3578042;40;20056;-68
2021/04/26 08:02:08;;;;;;;8.02;4.80;;;;;;;31.67;11.39;100478.59;3556742;40;20053;-69
2021/04/26 08:04:54;;;;;;;5.72;4.40;;;;;;;34.93;9.87;100472.94;3563052;40;20044;-68
2021/04/26 08:07:42;;;;;;;6.20;4.57;;;;;;;36.81;8.64;100467.97;3557535;40;20039;-68
2021/04/26 08:10:29;;;;;;;4.88;3.03;;;;;;;38.58;7.64;100460.41;3557847;40;20137;-69
2021/04/26 08:13:15;;;;;;;4.93;3.30;;;;;;;35.23;9.50;100469.72;3558010;40;20111;-69
2021/04/26 08:16:02;;;;;;;4.50;3.50;;;;;;;39.16;7.26;100454.94;3556077;40;20059;-69
2021/04/26 08:18:49;;;;;;;4.50;3.35;;;;;;;38.07;8.04;100465.41;3559658;40;20066;-69
2021/04/26 08:21:35;;;;;;;4.38;2.72;;;;;;;32.30;10.34;100471.59;3574106;40;20029;-69
2021/04/26 08:24:22;;;;;;;4.97;2.75;;;;;;;27.47;13.61;100490.78;3550540;40;20037;-69
2021/04/26 08:27:09;;;;;;;2.92;2.30;;;;;;;24.29;15.74;100494.44;3556813;40;20157;-70
2021/04/26 08:29:56;;;;;;;4.88;2.83;;;;;;;21.77;17.27;100490.44;3551599;40;20036;-68
2021/04/26 08:32:42;;;;;;;3.55;2.80;;;;;;;28.17;12.22;100482.44;3551042;40;20029;-69
2021/04/26 08:35:29;;;;;;;21.27;13.90;;;;;;;34.38;8.77;100452.44;3561887;40;20037;-69
2021/04/26 08:38:16;;;;;;;3.85;3.42;;;;;;;37.76;6.88;100450.09;3564418;40;20035;-69
2021/04/26 08:41:03;;;;;;;2.17;1.98;;;;;;;38.94;6.40;100441.00;3570096;40;20033;-69
2021/04/26 08:43:50;;;;;;;3.35;2.10;;;;;;;37.26;6.73;100452.16;3561284;40;20167;-70
2021/04/26 08:46:43;;;;;;;4.47;2.78;;;;;;;29.90;11.02;100459.28;3564491;40;20378;-69
2021/04/26 08:49:31;;;;;;;1.98;1.73;;;;;;;25.89;13.69;100475.63;3551031;40;20029;-69
2021/04/26 08:52:17;;;;;;;4.80;3.20;;;;;;;23.95;15.23;100485.09;3550242;40;20396;-71
2021/04/26 08:55:05;;;;;;;4.18;2.92;;;;;;;28.67;11.42;100474.19;3570973;40;20044;-70
2021/04/26 08:57:54;;;;;;;2.60;2.10;;;;;;;29.66;10.11;100454.03;3556044;40;20151;-69
2021/04/26 09:00:40;;;;;;;2.55;2.10;;;;;;;25.22;12.97;100466.91;3564039;40;20382;-68
2021/04/26 09:03:31;;;;;;;3.35;2.53;;;;;;;22.77;14.93;100471.34;3573177;40;20033;-69
2021/04/26 09:05:58;;;;;;;3.33;2.67;;;;;;;22.12;15.71;100469.75;3578795;40;20049;-69
2021/04/26 09:08:24;;;;;;;4.13;2.65;;;;;;;22.42;15.27;100473.47;3578570;40;20119;-69
2021/04/26 09:10:52;;;;;;;3.58;2.63;;;;;;;21.25;15.87;100481.28;3575701;40;20043;-69
2021/04/26 09:13:39;;;;;;;3.15;2.42;;;;;;;20.03;16.32;100477.28;3575425;40;20025;-69
2021/04/26 09:16:07;;;;;;;4.53;2.75;;;;;;;19.14;17.12;100478.31;3577082;40;20227;-69
2021/04/26 09:18:49;;;;;;;4.35;2.60;;;;;;;18.23;18.18;100482.78;3574677;40;20049;-69
2021/04/26 09:21:18;;;;;;;4.53;2.40;;;;;;;17.61;18.90;100484.19;3576415;40;20045;-69
2021/04/26 09:23:45;;;;;;;5.32;2.80;;;;;;;16.87;19.65;100484.41;3576747;40;20040;-71
2021/04/26 09:26:25;;;;;;;7.82;4.25;;;;;;;16.15;20.83;100491.28;3577611;40;20073;-69
2021/04/26 09:29:12;;;;;;;4.68;3.33;;;;;;;18.11;19.10;100482.72;3577625;40;20065;-71
2021/04/26 09:31:41;;;;;;;4.18;2.85;;;;;;;17.84;18.78;100480.94;3578160;40;20039;-68
2021/04/26 09:34:30;;;;;;;11.20;3.20;;;;;;;17.53;19.28;100475.88;3577175;40;20275;-68
2021/04/26 09:37:17;;;;;;;4.75;2.53;;;;;;;17.77;19.00;100471.69;3577685;40;20061;-69
2021/04/26 09:39:58;;;;;;;5.00;3.15;;;;;;;17.14;19.72;100480.06;3577882;40;20298;-71
2021/04/26 09:42:43;;;;;;;4.20;2.65;;;;;;;16.09;20.66;100492.47;3577558;40;20137;-70
2021/04/26 09:45:29;;;;;;;5.32;3.38;;;;;;;15.19;22.24;100491.28;3575940;40;20037;-69
2021/04/26 09:48:10;;;;;;;6.10;3.72;;;;;;;14.33;22.79;100498.34;3575009;40;20033;-69
2021/04/26 09:50:50;;;;;;;4.30;3.15;;;;;;;13.54;23.61;100496.94;3577384;40;20041;-68
2021/04/26 09:53:16;;;;;;;3.10;2.67;;;;;;;13.03;23.99;100506.22;3573978;40;20040;-68
2021/04/26 09:55:43;;;;;;;3.28;1.98;;;;;;;12.60;23.73;100509.88;3577231;40;20037;-68
2021/04/26 09:58:10;;;;;;;4.82;2.40;;;;;;;12.42;24.24;100514.13;3576870;40;20247;-70
2021/04/26 10:00:37;;;;;;;2.72;2.40;;;;;;;12.49;24.86;100509.44;3577585;40;20080;-68
2021/04/26 10:03:04;;;;;;;2.20;2.00;;;;;;;12.81;25.09;100510.72;3578383;40;20045;-69
2021/04/26 10:05:31;;;;;;;3.35;2.50;;;;;;;13.27;23.88;100503.44;3577844;40;20037;-67
2021/04/26 10:07:58;;;;;;;3.15;2.25;;;;;;;13.35;24.01;100502.19;3577750;40;20476;-68
2021/04/26 10:10:24;;;;;;;3.38;2.85;;;;;;;13.06;24.38;100494.72;3577525;40;20041;-68
2021/04/26 10:12:50;;;;;;;3.50;2.35;;;;;;;12.89;24.56;100491.97;3576266;40;20353;-68
2021/04/26 10:15:24;;;;;;;4.43;2.58;;;;;;;13.17;24.16;100496.88;3576306;40;20038;-69
2021/04/26 10:17:53;;;;;;;3.90;2.28;;;;;;;13.43;24.39;100488.66;3578003;40;20041;-68
2021/04/26 10:20:33;;;;;;;4.45;2.40;;;;;;;13.88;23.53;100480.38;3576650;40;20404;-69
2021/04/26 10:23:00;;;;;;;3.28;2.67;;;;;;;14.48;22.79;100480.94;3577658;40;20347;-68
2021/04/26 10:25:38;;;;;;;4.20;2.83;;;;;;;15.31;21.96;100472.16;3578006;40;20049;-69
2021/04/26 10:28:29;;;;;;;3.15;2.20;;;;;;;16.03;20.93;100463.75;3577902;40;20025;-68
2021/04/26 10:30:58;;;;;;;9.13;3.75;;;;;;;16.65;20.54;100458.31;3576687;40;20033;-67
2021/04/26 10:33:25;;;;;;;5.15;3.00;;;;;;;17.00;20.75;100448.28;3577364;40;20032;-68
2021/04/26 10:35:52;;;;;;;4.50;2.85;;;;;;;17.13;20.53;100443.09;3577506;40;20033;-68
2021/04/26 10:38:47;;;;;;;5.18;2.70;;;;;;;16.42;21.10;100449.13;3581542;40;20946;-69
2021/04/26 10:41:52;;;;;;;5.28;2.95;;;;;;;15.56;21.91;100445.25;3579456;40;20127;-68
2021/04/26 10:44:53;;;;;;;9.90;5.20;;;;;;;14.99;22.87;100443.97;3579548;40;20026;-68
2021/04/26 10:47:28;;;;;;;5.70;3.15;;;;;;;15.19;22.63;100444.63;3581971;40;20033;-69
2021/04/26 10:50:32;;;;;;;4.78;2.85;;;;;;;15.45;22.34;100437.06;3584310;40;20025;-70
2021/04/26 10:53:00;;;;;;;4.40;2.75;;;;;;;15.67;22.15;100431.47;3578202;40;20032;-68
2021/04/26 10:55:46;;;;;;;5.57;2.95;;;;;;;15.26;22.18;100437.22;3581977;40;20044;-68
2021/04/26 10:58:29;;;;;;;3.45;2.40;;;;;;;14.97;22.65;100440.56;3579427;40;20036;-69
2021/04/26 11:00:56;;;;;;;3.13;2.33;;;;;;;14.86;22.63;100428.81;3576450;40;20040;-69
2021/04/26 11:03:35;;;;;;;3.38;2.28;;;;;;;14.45;22.42;100433.63;3577286;40;20103;-68
2021/04/26 11:06:27;;;;;;;4.25;2.25;;;;;;;13.84;22.72;100431.38;3576419;40;20048;-68
2021/04/26 11:11:48;;;;;;;5.45;2.28;;;;;;;13.19;23.01;100431.88;3575370;40;20033;-69
2021/04/26 11:14:22;;;;;;;4.38;2.72;;;;;;;13.07;22.95;100438.50;3575023;40;20040;-69
2021/04/26 11:17:02;;;;;;;3.08;2.53;;;;;;;13.03;23.11;100435.16;3574390;40;20356;-68
2021/04/26 11:19:29;;;;;;;2.22;1.98;;;;;;;13.19;23.16;100431.88;3574805;40;20311;-68
2021/04/26 11:21:59;;;;;;;3.95;2.70;;;;;;;13.42;22.92;100434.28;3571052;40;20054;-69
2021/04/26 11:25:03;;;;;;;3.92;2.40;;;;;;;13.90;22.50;100419.66;3575375;40;20037;-67
2021/04/26 11:27:32;;;;;;;2.92;1.95;;;;;;;14.28;22.21;100418.59;3585027;40;20033;-68
2021/04/26 11:30:16;;;;;;;5.38;2.40;;;;;;;14.00;22.30;100424.44;3586532;40;20035;-69
2021/04/26 11:33:09;;;;;;;3.00;2.05;;;;;;;14.18;21.89;100414.75;3586869;40;20406;-69
2021/04/26 11:35:59;;;;;;;2.72;2.30;;;;;;;14.46;22.09;100408.94;3587299;40;20382;-68
2021/04/26 11:38:27;;;;;;;6.65;3.22;;;;;;;14.62;21.92;100414.28;3587298;40;20162;-69
2021/04/26 11:40:53;;;;;;;3.22;2.13;;;;;;;14.62;21.93;100409.00;3587784;40;20036;-68
2021/04/26 11:43:20;;;;;;;4.50;2.40;;;;;;;14.46;21.85;100405.44;3582374;40;20026;-69
2021/04/26 11:45:48;;;;;;;2.80;2.22;;;;;;;13.81;22.20;100399.06;3571906;40;20042;-68